Concord Township, Ohio
Current Conditions -  °F | °C
As of 11:15 PM on Wednesday 28 Jan 2015 (Local Time) from KLNN Reporting Station
Clear Clear  
Wind Chill: 19°   Ceiling: Unl
Heat Index: 26°   Visibility: 10mi
Dew Point:   Wind: 7mph
Humidity: 49%   Direction: 210°SSW
Pressure: 30.23"   Gusts: NA
Location:  41.6763°N, 81.3297°W
Report Text: KLNN 290415Z AUTO 21006KT 10SM CLR M03/M13 A3023 RMK AO1 T10321127
Loading
Personal Weather Stations






























Interactive Weather Map New forecast layout! Learn more

10-Day Weather Forecast

Advertisements
Track Severe Weather on mobile